Nearby METAR Reports

 

KPMP - Pompano Beach, Florida, USA
Distance from station: NNW 3mi, 5km
Updated: 01/24/2020 2:53pm
Partly cloudy
Partly cloudy
 Wind from ESE
Wind: ESE 10 mph , 17 km/h, Gust: 17 mph , 28 km/h
Temperature: 77°F , 25°C
Dew Point: 61°F , 16°C
Humidity: 57%
Barometer: 30.00 inHg , 1015.9 hPa
Clouds: Partly cloudy
Visibility: 10 miles , 16 km
Cloud details: Partly cloudy 4500 ft
2020/01/24 19:53 KPMP 241953Z 12009G15KT 10SM SCT045 25/16 A3000 RMK AO2 SLP160 T025001
KFXE - Ft Lauderd/Exec, Florida, USA
Distance from station: W 6mi, 9km
Updated: 01/24/2020 2:53pm
Mostly cloudy
Mostly cloudy
 Wind from ESE
Wind: ESE 9 mph , 15 km/h
Temperature: 75°F , 24°C
Dew Point: 61°F , 16°C
Humidity: 61%
Barometer: 30.00 inHg , 1015.9 hPa
Clouds: Mostly cloudy
Visibility: 10 miles , 16 km
Cloud details: Few Clouds 4000 ft
Mostly cloudy 4900 ft
2020/01/24 19:53 KFXE 241953Z 11008KT 10SM FEW040 BKN049 24/16 A3000 RMK AO2 SLP160 T02440161
 
KFLL - Ft Lauderd/Holly, Florida, USA
Distance from station: SSW 11mi, 17km
Updated: 01/24/2020 1:53pm
Mostly cloudy
Mostly cloudy
 Wind from SE
Wind: SE 14 mph , 22 km/h
Temperature: 75°F , 24°C
Dew Point: 63°F , 17°C
Humidity: 65%
Barometer: 30.00 inHg , 1015.9 hPa
Clouds: Mostly cloudy
Visibility: 10 miles , 16 km
Cloud details: Few Clouds 3000 ft
Few Clouds 6000 ft
Mostly cloudy 25000 ft
2020/01/24 18:53 KFLL 241853Z 13012KT 10SM FEW030 FEW060 BKN250 24/17 A3000 RMK AO2 SLP158 T02440172
KBCT - Boca Raton, Florida, USA
Distance from station: N 12mi, 19km
Updated: 01/24/2020 2:47pm
Partly cloudy
Partly cloudy
 Wind from SE
Wind: SE 6 mph , 9 km/h
Temperature: 77°F , 25°C
Dew Point: 64°F , 18°C
Humidity: 65%
Barometer: 30.01 inHg , 1016.3 hPa
Clouds: Partly cloudy
Visibility: 8 miles , 13 km
Cloud details: Partly cloudy 3100 ft
2020/01/24 19:47 KBCT 241947Z 14005KT 8SM SCT031 25/18 A3001
 
KHWO - Hollywood, Florida, USA
Distance from station: SSW 17mi, 27km
Updated: 01/24/2020 2:53pm
Few Clouds
Few Clouds
 Wind from E
Wind: E 8 mph , 13 km/h
Temperature: 77°F , 25°C
Dew Point: 63°F , 17°C
Humidity: 61%
Barometer: 30.00 inHg , 1015.9 hPa
Clouds: Few Clouds
Visibility: 10 miles , 16 km
Cloud details: Few Clouds 3300 ft
2020/01/24 19:53 KHWO 241953Z 09007KT 10SM FEW033 25/17 A3000 RMK AO2 RAE1854 SLP160 P0000 T02500167 $
KOPF - Miami/Opa Locka, Florida, USA
Distance from station: SSW 24mi, 38km
Updated: 01/24/2020 2:53pm
Partly cloudy
Partly cloudy
 Wind from SE
Wind: SE 9 mph , 15 km/h
Temperature: 75°F , 24°C
Dew Point: 63°F , 17°C
Humidity: 65%
Barometer: 30.00 inHg , 1015.9 hPa
Clouds: Partly cloudy
Visibility: 10 miles , 16 km
Cloud details: Few Clouds 3600 ft
Few Clouds 4300 ft
Partly cloudy 8000 ft
2020/01/24 19:53 KOPF 241953Z 13008KT 10SM FEW036 FEW043 SCT080 24/17 A3000 RMK AO2 SLP159 T02440172 PNO
 
KMIA - Miami, Florida, USA
Distance from station: SSW 31mi, 50km
Updated: 01/24/2020 2:53pm
Mostly cloudy
Mostly cloudy
 Wind from SSE
Wind: SSE 10 mph , 17 km/h, Gust: 20 mph , 31 km/h
Temperature: 77°F , 25°C
Dew Point: 61°F , 16°C
Humidity: 57%
Barometer: 30.00 inHg , 1015.9 hPa
Clouds: Mostly cloudy
Visibility: 10 miles , 16 km
Cloud details: Partly cloudy 3500 ft
Mostly cloudy 9000 ft
Mostly cloudy 25000 ft
2020/01/24 19:53 KMIA 241953Z 15009G17KT 10SM SCT035 BKN090 BKN250 25/16 A3000 RMK AO2 SLP158 T025001
KPBI - West Palm Beach, Florida, USA
Distance from station: N 33mi, 52km
Updated: 01/24/2020 2:53pm
Mostly cloudy
Mostly cloudy
 Wind from E
Wind: E 8 mph , 13 km/h
Temperature: 75°F , 24°C
Dew Point: 64°F , 18°C
Humidity: 69%
Barometer: 30.01 inHg , 1016.3 hPa
Clouds: Mostly cloudy
Visibility: 10 miles , 16 km
Cloud details: Partly cloudy 2400 ft
Mostly cloudy 10000 ft
Mostly cloudy 22000 ft
2020/01/24 19:53 KPBI 241953Z 10007KT 10SM SCT024 BKN100 BKN220 24/18 A3001 RMK AO2 SLP162 T02390178 $
 
KTMB - Miami/Tamiami, Florida, USA
Distance from station: SSW 44mi, 71km
Updated: 01/24/2020 2:53pm
Mostly cloudy
Mostly cloudy
 Wind from varies
Wind: varies 7 mph , 11 km/h
Temperature: 79°F , 26°C
Dew Point: 64°F , 18°C
Humidity: 61%
Barometer: 29.99 inHg , 1015.6 hPa
Clouds: Mostly cloudy
Visibility: 10 miles , 16 km
Cloud details: Partly cloudy 3900 ft
Mostly cloudy 8500 ft
2020/01/24 19:53 KTMB 241953Z VRB06KT 10SM SCT039 BKN085 26/18 A2999 RMK AO2 SLP152 T02610